sensor_id;sensor_type;location;lat;lon;timestamp;temperature;humidity
25058;DHT22;13057;50.978;11.034;2024-03-22T00:01:54;9.10;99.90
25058;DHT22;13057;50.978;11.034;2024-03-22T00:04:20;9.10;99.90
25058;DHT22;13057;50.978;11.034;2024-03-22T00:06:48;9.10;99.90
25058;DHT22;13057;50.978;11.034;2024-03-22T00:09:14;9.10;99.90
25058;DHT22;13057;50.978;11.034;2024-03-22T00:11:41;9.10;99.90
25058;DHT22;13057;50.978;11.034;2024-03-22T00:14:08;9.10;99.90
25058;DHT22;13057;50.978;11.034;2024-03-22T00:16:35;9.10;99.90
25058;DHT22;13057;50.978;11.034;2024-03-22T00:19:01;9.10;99.90
25058;DHT22;13057;50.978;11.034;2024-03-22T00:21:28;9.10;99.90
25058;DHT22;13057;50.978;11.034;2024-03-22T00:23:55;9.10;99.90
25058;DHT22;13057;50.978;11.034;2024-03-22T00:26:24;9.10;99.90
25058;DHT22;13057;50.978;11.034;2024-03-22T00:28:50;9.10;99.90
25058;DHT22;13057;50.978;11.034;2024-03-22T00:31:16;9.10;99.90
25058;DHT22;13057;50.978;11.034;2024-03-22T00:33:42;9.10;99.90
25058;DHT22;13057;50.978;11.034;2024-03-22T00:36:08;9.10;99.90
25058;DHT22;13057;50.978;11.034;2024-03-22T00:38:34;9.10;99.90
25058;DHT22;13057;50.978;11.034;2024-03-22T00:41:00;9.00;99.90
25058;DHT22;13057;50.978;11.034;2024-03-22T00:43:26;9.00;99.90
25058;DHT22;13057;50.978;11.034;2024-03-22T00:45:52;8.90;99.90
25058;DHT22;13057;50.978;11.034;2024-03-22T00:48:17;8.90;99.90
25058;DHT22;13057;50.978;11.034;2024-03-22T00:50:44;8.80;99.90
25058;DHT22;13057;50.978;11.034;2024-03-22T00:53:09;8.80;99.90
25058;DHT22;13057;50.978;11.034;2024-03-22T00:55:36;8.80;99.90
25058;DHT22;13057;50.978;11.034;2024-03-22T00:58:02;8.70;99.90
25058;DHT22;13057;50.978;11.034;2024-03-22T01:00:28;8.80;99.90
25058;DHT22;13057;50.978;11.034;2024-03-22T01:02:53;8.80;99.90
25058;DHT22;13057;50.978;11.034;2024-03-22T01:05:19;8.80;99.90
25058;DHT22;13057;50.978;11.034;2024-03-22T01:07:45;8.80;99.90
25058;DHT22;13057;50.978;11.034;2024-03-22T01:10:12;8.80;99.90
25058;DHT22;13057;50.978;11.034;2024-03-22T01:12:38;8.80;99.90
25058;DHT22;13057;50.978;11.034;2024-03-22T01:15:05;8.80;99.90
25058;DHT22;13057;50.978;11.034;2024-03-22T01:17:33;8.90;99.90
25058;DHT22;13057;50.978;11.034;2024-03-22T01:20:00;8.90;99.90
25058;DHT22;13057;50.978;11.034;2024-03-22T01:22:26;8.90;99.90
25058;DHT22;13057;50.978;11.034;2024-03-22T01:24:52;8.90;99.90
25058;DHT22;13057;50.978;11.034;2024-03-22T01:27:19;8.90;99.90
25058;DHT22;13057;50.978;11.034;2024-03-22T01:29:46;8.90;99.90
25058;DHT22;13057;50.978;11.034;2024-03-22T01:32:12;9.00;99.90
25058;DHT22;13057;50.978;11.034;2024-03-22T01:34:38;9.00;99.90
25058;DHT22;13057;50.978;11.034;2024-03-22T01:37:04;9.00;99.90
25058;DHT22;13057;50.978;11.034;2024-03-22T01:39:30;9.00;99.90
25058;DHT22;13057;50.978;11.034;2024-03-22T01:41:56;9.00;99.90
25058;DHT22;13057;50.978;11.034;2024-03-22T01:44:27;9.00;99.90
25058;DHT22;13057;50.978;11.034;2024-03-22T01:47:00;9.10;99.90
25058;DHT22;13057;50.978;11.034;2024-03-22T01:49:26;9.00;99.90
25058;DHT22;13057;50.978;11.034;2024-03-22T01:51:53;9.00;99.90
25058;DHT22;13057;50.978;11.034;2024-03-22T01:54:20;8.90;99.90
25058;DHT22;13057;50.978;11.034;2024-03-22T01:56:46;9.00;99.90
25058;DHT22;13057;50.978;11.034;2024-03-22T01:59:13;8.90;99.90
25058;DHT22;13057;50.978;11.034;2024-03-22T02:01:39;8.90;99.90
25058;DHT22;13057;50.978;11.034;2024-03-22T02:04:05;8.90;99.90
25058;DHT22;13057;50.978;11.034;2024-03-22T02:06:32;9.00;99.90
25058;DHT22;13057;50.978;11.034;2024-03-22T02:08:58;8.90;99.90
25058;DHT22;13057;50.978;11.034;2024-03-22T02:11:26;8.90;99.90
25058;DHT22;13057;50.978;11.034;2024-03-22T02:13:52;8.90;99.90
25058;DHT22;13057;50.978;11.034;2024-03-22T02:16:18;8.90;99.90
25058;DHT22;13057;50.978;11.034;2024-03-22T02:18:44;8.80;99.90
25058;DHT22;13057;50.978;11.034;2024-03-22T02:21:10;8.80;99.90
25058;DHT22;13057;50.978;11.034;2024-03-22T02:23:37;8.80;99.90
25058;DHT22;13057;50.978;11.034;2024-03-22T02:26:04;8.80;99.90
25058;DHT22;13057;50.978;11.034;2024-03-22T02:28:31;8.80;99.90
25058;DHT22;13057;50.978;11.034;2024-03-22T02:30:59;8.80;99.90
25058;DHT22;13057;50.978;11.034;2024-03-22T02:33:25;8.80;99.90
25058;DHT22;13057;50.978;11.034;2024-03-22T02:35:51;8.80;99.90
25058;DHT22;13057;50.978;11.034;2024-03-22T02:38:17;8.80;99.90
25058;DHT22;13057;50.978;11.034;2024-03-22T02:40:44;8.80;99.90
25058;DHT22;13057;50.978;11.034;2024-03-22T02:43:10;8.80;99.90
25058;DHT22;13057;50.978;11.034;2024-03-22T02:45:36;8.80;99.90
25058;DHT22;13057;50.978;11.034;2024-03-22T02:48:03;8.80;99.90
25058;DHT22;13057;50.978;11.034;2024-03-22T02:50:33;8.80;99.90
25058;DHT22;13057;50.978;11.034;2024-03-22T02:52:59;8.80;99.90
25058;DHT22;13057;50.978;11.034;2024-03-22T02:55:25;8.80;99.90
25058;DHT22;13057;50.978;11.034;2024-03-22T02:57:51;8.80;99.90
25058;DHT22;13057;50.978;11.034;2024-03-22T03:00:17;8.80;99.90
25058;DHT22;13057;50.978;11.034;2024-03-22T03:02:45;8.80;99.90
25058;DHT22;13057;50.978;11.034;2024-03-22T03:05:11;8.80;99.90
25058;DHT22;13057;50.978;11.034;2024-03-22T03:07:36;8.80;99.90
25058;DHT22;13057;50.978;11.034;2024-03-22T03:10:02;8.80;99.90
25058;DHT22;13057;50.978;11.034;2024-03-22T03:12:28;8.70;99.90
25058;DHT22;13057;50.978;11.034;2024-03-22T03:14:54;8.70;99.90
25058;DHT22;13057;50.978;11.034;2024-03-22T03:17:20;8.70;99.90
25058;DHT22;13057;50.978;11.034;2024-03-22T03:19:46;8.70;99.90
25058;DHT22;13057;50.978;11.034;2024-03-22T03:22:12;8.70;99.90
25058;DHT22;13057;50.978;11.034;2024-03-22T03:24:37;8.70;99.90
25058;DHT22;13057;50.978;11.034;2024-03-22T03:27:03;8.70;99.90
25058;DHT22;13057;50.978;11.034;2024-03-22T03:29:29;8.70;99.90
25058;DHT22;13057;50.978;11.034;2024-03-22T03:31:55;8.70;99.90
25058;DHT22;13057;50.978;11.034;2024-03-22T03:34:21;8.70;99.90
25058;DHT22;13057;50.978;11.034;2024-03-22T03:36:47;8.70;99.90
25058;DHT22;13057;50.978;11.034;2024-03-22T03:39:13;8.80;99.90
25058;DHT22;13057;50.978;11.034;2024-03-22T03:41:39;8.80;99.90
25058;DHT22;13057;50.978;11.034;2024-03-22T03:44:05;8.80;99.90
25058;DHT22;13057;50.978;11.034;2024-03-22T03:46:31;8.70;99.90
25058;DHT22;13057;50.978;11.034;2024-03-22T03:48:56;8.70;99.90
25058;DHT22;13057;50.978;11.034;2024-03-22T03:51:23;8.70;99.90
25058;DHT22;13057;50.978;11.034;2024-03-22T03:53:48;8.70;99.90
25058;DHT22;13057;50.978;11.034;2024-03-22T03:56:14;8.70;99.90
25058;DHT22;13057;50.978;11.034;2024-03-22T03:58:40;8.70;99.90
25058;DHT22;13057;50.978;11.034;2024-03-22T04:01:07;8.70;99.90
25058;DHT22;13057;50.978;11.034;2024-03-22T04:03:33;8.70;99.90
25058;DHT22;13057;50.978;11.034;2024-03-22T04:05:59;8.70;99.90
25058;DHT22;13057;50.978;11.034;2024-03-22T04:08:26;8.70;99.90
25058;DHT22;13057;50.978;11.034;2024-03-22T04:10:53;8.70;99.90
25058;DHT22;13057;50.978;11.034;2024-03-22T04:13:21;8.70;99.90
25058;DHT22;13057;50.978;11.034;2024-03-22T04:15:47;8.70;99.90
25058;DHT22;13057;50.978;11.034;2024-03-22T04:18:13;8.60;99.90
25058;DHT22;13057;50.978;11.034;2024-03-22T04:20:39;8.60;99.90
25058;DHT22;13057;50.978;11.034;2024-03-22T04:23:04;8.70;99.90
25058;DHT22;13057;50.978;11.034;2024-03-22T04:25:30;8.70;99.90
25058;DHT22;13057;50.978;11.034;2024-03-22T04:27:56;8.70;99.90
25058;DHT22;13057;50.978;11.034;2024-03-22T04:30:22;8.70;99.90
25058;DHT22;13057;50.978;11.034;2024-03-22T04:32:48;8.70;99.90
25058;DHT22;13057;50.978;11.034;2024-03-22T04:35:14;8.70;99.90
25058;DHT22;13057;50.978;11.034;2024-03-22T04:37:40;8.60;99.90
25058;DHT22;13057;50.978;11.034;2024-03-22T04:40:06;8.60;99.90
25058;DHT22;13057;50.978;11.034;2024-03-22T04:42:32;8.70;99.90
25058;DHT22;13057;50.978;11.034;2024-03-22T04:44:58;8.70;99.90
25058;DHT22;13057;50.978;11.034;2024-03-22T04:47:24;8.70;99.90
25058;DHT22;13057;50.978;11.034;2024-03-22T04:49:50;8.70;99.90
25058;DHT22;13057;50.978;11.034;2024-03-22T04:52:16;8.70;99.90
25058;DHT22;13057;50.978;11.034;2024-03-22T04:54:42;8.80;99.90
25058;DHT22;13057;50.978;11.034;2024-03-22T04:57:07;8.80;99.90
25058;DHT22;13057;50.978;11.034;2024-03-22T04:59:33;8.80;99.90
25058;DHT22;13057;50.978;11.034;2024-03-22T05:01:59;8.90;99.90
25058;DHT22;13057;50.978;11.034;2024-03-22T05:04:25;8.90;99.90
25058;DHT22;13057;50.978;11.034;2024-03-22T05:06:51;9.00;99.90
25058;DHT22;13057;50.978;11.034;2024-03-22T05:09:16;9.10;99.90
25058;DHT22;13057;50.978;11.034;2024-03-22T05:11:42;9.20;99.90
25058;DHT22;13057;50.978;11.034;2024-03-22T05:14:08;9.30;99.90
25058;DHT22;13057;50.978;11.034;2024-03-22T05:16:34;9.30;99.90
25058;DHT22;13057;50.978;11.034;2024-03-22T05:19:00;9.40;99.90
25058;DHT22;13057;50.978;11.034;2024-03-22T05:21:26;9.40;99.90
25058;DHT22;13057;50.978;11.034;2024-03-22T05:23:52;9.40;99.90
25058;DHT22;13057;50.978;11.034;2024-03-22T05:26:18;9.40;99.90
25058;DHT22;13057;50.978;11.034;2024-03-22T05:28:46;9.40;99.90
25058;DHT22;13057;50.978;11.034;2024-03-22T05:31:12;9.50;99.90
25058;DHT22;13057;50.978;11.034;2024-03-22T05:33:38;9.50;99.90
25058;DHT22;13057;50.978;11.034;2024-03-22T05:36:03;9.60;99.90
25058;DHT22;13057;50.978;11.034;2024-03-22T05:38:29;9.60;99.90
25058;DHT22;13057;50.978;11.034;2024-03-22T05:40:55;9.60;99.90
25058;DHT22;13057;50.978;11.034;2024-03-22T05:43:21;9.70;99.90
25058;DHT22;13057;50.978;11.034;2024-03-22T05:45:46;9.70;99.90
25058;DHT22;13057;50.978;11.034;2024-03-22T05:48:14;9.80;99.90
25058;DHT22;13057;50.978;11.034;2024-03-22T05:50:40;9.80;99.90
25058;DHT22;13057;50.978;11.034;2024-03-22T05:53:06;9.80;99.90
25058;DHT22;13057;50.978;11.034;2024-03-22T05:55:32;9.80;99.90
25058;DHT22;13057;50.978;11.034;2024-03-22T05:57:58;9.90;99.90
25058;DHT22;13057;50.978;11.034;2024-03-22T06:00:24;9.90;99.90
25058;DHT22;13057;50.978;11.034;2024-03-22T06:02:50;9.90;99.90
25058;DHT22;13057;50.978;11.034;2024-03-22T06:05:16;9.90;99.90
25058;DHT22;13057;50.978;11.034;2024-03-22T06:07:43;10.00;99.90
25058;DHT22;13057;50.978;11.034;2024-03-22T06:10:11;10.10;99.90
25058;DHT22;13057;50.978;11.034;2024-03-22T06:12:37;10.10;99.90
25058;DHT22;13057;50.978;11.034;2024-03-22T06:15:03;10.20;99.90
25058;DHT22;13057;50.978;11.034;2024-03-22T06:17:33;10.30;99.90
25058;DHT22;13057;50.978;11.034;2024-03-22T06:19:59;10.40;99.90
25058;DHT22;13057;50.978;11.034;2024-03-22T06:22:26;10.40;99.90
25058;DHT22;13057;50.978;11.034;2024-03-22T06:24:52;10.50;99.90
25058;DHT22;13057;50.978;11.034;2024-03-22T06:27:19;10.60;99.90
25058;DHT22;13057;50.978;11.034;2024-03-22T06:29:45;10.60;99.90
25058;DHT22;13057;50.978;11.034;2024-03-22T06:32:12;10.70;99.90
25058;DHT22;13057;50.978;11.034;2024-03-22T06:34:37;10.70;99.90
25058;DHT22;13057;50.978;11.034;2024-03-22T06:37:04;10.70;99.90
25058;DHT22;13057;50.978;11.034;2024-03-22T06:39:30;10.70;99.90
25058;DHT22;13057;50.978;11.034;2024-03-22T06:41:55;10.80;99.90
25058;DHT22;13057;50.978;11.034;2024-03-22T06:44:21;10.80;99.90
25058;DHT22;13057;50.978;11.034;2024-03-22T06:46:47;10.80;99.90
25058;DHT22;13057;50.978;11.034;2024-03-22T06:49:13;10.90;99.90
25058;DHT22;13057;50.978;11.034;2024-03-22T06:51:39;10.90;99.90
25058;DHT22;13057;50.978;11.034;2024-03-22T06:54:05;10.90;99.90
25058;DHT22;13057;50.978;11.034;2024-03-22T06:56:30;11.00;99.90
25058;DHT22;13057;50.978;11.034;2024-03-22T06:58:56;11.00;99.90
25058;DHT22;13057;50.978;11.034;2024-03-22T07:01:22;11.10;99.90
25058;DHT22;13057;50.978;11.034;2024-03-22T07:03:48;11.10;99.90
25058;DHT22;13057;50.978;11.034;2024-03-22T07:06:16;11.20;99.90
25058;DHT22;13057;50.978;11.034;2024-03-22T07:08:42;11.20;99.90
25058;DHT22;13057;50.978;11.034;2024-03-22T07:11:07;11.20;99.90
25058;DHT22;13057;50.978;11.034;2024-03-22T07:13:34;11.30;99.90
25058;DHT22;13057;50.978;11.034;2024-03-22T07:16:00;11.30;99.90
25058;DHT22;13057;50.978;11.034;2024-03-22T07:18:26;11.30;99.90
25058;DHT22;13057;50.978;11.034;2024-03-22T07:20:52;11.40;99.90
25058;DHT22;13057;50.978;11.034;2024-03-22T07:23:21;11.50;99.90
25058;DHT22;13057;50.978;11.034;2024-03-22T07:25:47;11.50;99.90
25058;DHT22;13057;50.978;11.034;2024-03-22T07:28:15;11.50;99.90
25058;DHT22;13057;50.978;11.034;2024-03-22T07:30:42;11.60;99.90
25058;DHT22;13057;50.978;11.034;2024-03-22T07:33:07;11.70;99.90
25058;DHT22;13057;50.978;11.034;2024-03-22T07:35:35;11.80;99.90
25058;DHT22;13057;50.978;11.034;2024-03-22T07:38:01;11.90;99.90
25058;DHT22;13057;50.978;11.034;2024-03-22T07:40:26;12.00;99.90
25058;DHT22;13057;50.978;11.034;2024-03-22T07:42:52;12.00;99.90
25058;DHT22;13057;50.978;11.034;2024-03-22T07:45:18;12.10;99.90
25058;DHT22;13057;50.978;11.034;2024-03-22T07:47:44;12.20;99.90
25058;DHT22;13057;50.978;11.034;2024-03-22T07:50:10;12.20;99.90
25058;DHT22;13057;50.978;11.034;2024-03-22T07:52:36;12.30;99.90
25058;DHT22;13057;50.978;11.034;2024-03-22T07:55:01;12.40;99.90
25058;DHT22;13057;50.978;11.034;2024-03-22T07:57:29;12.40;99.90
25058;DHT22;13057;50.978;11.034;2024-03-22T07:59:57;12.50;99.90
25058;DHT22;13057;50.978;11.034;2024-03-22T08:02:23;12.50;99.90
25058;DHT22;13057;50.978;11.034;2024-03-22T08:08:11;12.70;99.90
25058;DHT22;13057;50.978;11.034;2024-03-22T08:10:37;12.90;99.90
25058;DHT22;13057;50.978;11.034;2024-03-22T08:13:03;13.10;99.90
25058;DHT22;13057;50.978;11.034;2024-03-22T08:15:32;13.10;99.90
25058;DHT22;13057;50.978;11.034;2024-03-22T08:17:58;13.20;99.90
25058;DHT22;13057;50.978;11.034;2024-03-22T08:20:24;13.30;99.90
25058;DHT22;13057;50.978;11.034;2024-03-22T08:22:50;13.30;99.90
25058;DHT22;13057;50.978;11.034;2024-03-22T08:25:16;13.40;99.90
25058;DHT22;13057;50.978;11.034;2024-03-22T08:27:45;13.50;99.90
25058;DHT22;13057;50.978;11.034;2024-03-22T08:30:11;13.50;99.90
25058;DHT22;13057;50.978;11.034;2024-03-22T08:32:38;13.50;99.90
25058;DHT22;13057;50.978;11.034;2024-03-22T08:35:03;13.50;99.90
25058;DHT22;13057;50.978;11.034;2024-03-22T08:37:30;13.60;99.90
25058;DHT22;13057;50.978;11.034;2024-03-22T08:39:56;13.70;99.90
25058;DHT22;13057;50.978;11.034;2024-03-22T08:42:22;13.70;99.90
25058;DHT22;13057;50.978;11.034;2024-03-22T08:44:48;13.80;99.90
25058;DHT22;13057;50.978;11.034;2024-03-22T08:47:14;13.80;99.90
25058;DHT22;13057;50.978;11.034;2024-03-22T08:49:40;13.90;99.90
25058;DHT22;13057;50.978;11.034;2024-03-22T08:52:08;14.00;99.90
25058;DHT22;13057;50.978;11.034;2024-03-22T08:54:34;14.00;99.90
25058;DHT22;13057;50.978;11.034;2024-03-22T08:57:00;14.10;99.90
25058;DHT22;13057;50.978;11.034;2024-03-22T08:59:27;14.20;99.90
25058;DHT22;13057;50.978;11.034;2024-03-22T09:01:53;14.20;99.90
25058;DHT22;13057;50.978;11.034;2024-03-22T09:04:19;14.20;99.90
25058;DHT22;13057;50.978;11.034;2024-03-22T09:06:45;14.30;99.90
25058;DHT22;13057;50.978;11.034;2024-03-22T09:09:12;14.40;99.90
25058;DHT22;13057;50.978;11.034;2024-03-22T09:11:38;14.50;99.90
25058;DHT22;13057;50.978;11.034;2024-03-22T09:14:04;14.60;99.90
25058;DHT22;13057;50.978;11.034;2024-03-22T09:16:32;14.60;99.90
25058;DHT22;13057;50.978;11.034;2024-03-22T09:18:58;14.60;99.90
25058;DHT22;13057;50.978;11.034;2024-03-22T09:21:24;14.70;99.90
25058;DHT22;13057;50.978;11.034;2024-03-22T09:23:50;14.70;99.90
25058;DHT22;13057;50.978;11.034;2024-03-22T09:26:16;14.80;99.90
25058;DHT22;13057;50.978;11.034;2024-03-22T09:28:42;14.80;99.90
25058;DHT22;13057;50.978;11.034;2024-03-22T09:31:08;14.80;99.90
25058;DHT22;13057;50.978;11.034;2024-03-22T09:33:34;15.00;99.90
25058;DHT22;13057;50.978;11.034;2024-03-22T09:36:00;15.20;99.90
25058;DHT22;13057;50.978;11.034;2024-03-22T09:38:26;15.30;99.90
25058;DHT22;13057;50.978;11.034;2024-03-22T09:40:52;15.40;99.90
25058;DHT22;13057;50.978;11.034;2024-03-22T09:43:20;15.50;99.90
25058;DHT22;13057;50.978;11.034;2024-03-22T09:45:48;15.50;99.90
25058;DHT22;13057;50.978;11.034;2024-03-22T09:48:18;15.40;99.90
25058;DHT22;13057;50.978;11.034;2024-03-22T09:50:46;15.30;99.90
25058;DHT22;13057;50.978;11.034;2024-03-22T09:53:16;15.30;99.90
25058;DHT22;13057;50.978;11.034;2024-03-22T09:55:46;15.30;99.90
25058;DHT22;13057;50.978;11.034;2024-03-22T09:58:12;15.30;99.90
25058;DHT22;13057;50.978;11.034;2024-03-22T10:00:38;15.30;99.90
25058;DHT22;13057;50.978;11.034;2024-03-22T10:03:04;15.30;99.90
25058;DHT22;13057;50.978;11.034;2024-03-22T10:05:31;15.40;99.90
25058;DHT22;13057;50.978;11.034;2024-03-22T10:07:57;15.50;99.90
25058;DHT22;13057;50.978;11.034;2024-03-22T10:10:23;15.60;99.90
25058;DHT22;13057;50.978;11.034;2024-03-22T10:12:49;15.60;99.90
25058;DHT22;13057;50.978;11.034;2024-03-22T10:15:17;15.60;99.90
25058;DHT22;13057;50.978;11.034;2024-03-22T10:17:46;15.70;99.90
25058;DHT22;13057;50.978;11.034;2024-03-22T10:20:13;15.70;99.90
25058;DHT22;13057;50.978;11.034;2024-03-22T10:22:43;15.70;99.90
25058;DHT22;13057;50.978;11.034;2024-03-22T10:25:16;15.70;99.90
25058;DHT22;13057;50.978;11.034;2024-03-22T10:27:43;15.90;99.90
25058;DHT22;13057;50.978;11.034;2024-03-22T10:30:09;16.00;99.90
25058;DHT22;13057;50.978;11.034;2024-03-22T10:32:36;16.00;99.90
25058;DHT22;13057;50.978;11.034;2024-03-22T10:35:03;16.10;99.90
25058;DHT22;13057;50.978;11.034;2024-03-22T10:37:33;16.10;99.90
25058;DHT22;13057;50.978;11.034;2024-03-22T10:40:02;16.20;99.90
25058;DHT22;13057;50.978;11.034;2024-03-22T10:42:35;16.30;99.90
25058;DHT22;13057;50.978;11.034;2024-03-22T10:45:03;16.30;99.90
25058;DHT22;13057;50.978;11.034;2024-03-22T10:47:31;16.30;99.90
25058;DHT22;13057;50.978;11.034;2024-03-22T10:50:07;16.40;99.90
25058;DHT22;13057;50.978;11.034;2024-03-22T10:52:39;16.30;99.90
25058;DHT22;13057;50.978;11.034;2024-03-22T10:55:10;16.30;99.90
25058;DHT22;13057;50.978;11.034;2024-03-22T10:57:38;16.30;99.90
25058;DHT22;13057;50.978;11.034;2024-03-22T11:00:08;16.40;99.90
25058;DHT22;13057;50.978;11.034;2024-03-22T11:02:36;16.40;99.90
25058;DHT22;13057;50.978;11.034;2024-03-22T11:05:04;16.40;99.90
25058;DHT22;13057;50.978;11.034;2024-03-22T11:07:31;16.40;99.90
25058;DHT22;13057;50.978;11.034;2024-03-22T11:09:57;16.40;99.90
25058;DHT22;13057;50.978;11.034;2024-03-22T11:12:25;16.50;99.90
25058;DHT22;13057;50.978;11.034;2024-03-22T11:14:53;16.60;99.90
25058;DHT22;13057;50.978;11.034;2024-03-22T11:17:19;16.60;99.90
25058;DHT22;13057;50.978;11.034;2024-03-22T11:19:44;16.70;99.90
25058;DHT22;13057;50.978;11.034;2024-03-22T11:22:11;16.70;99.90
25058;DHT22;13057;50.978;11.034;2024-03-22T11:24:38;16.80;99.90
25058;DHT22;13057;50.978;11.034;2024-03-22T11:27:04;16.80;99.90
25058;DHT22;13057;50.978;11.034;2024-03-22T11:29:30;16.80;99.90
25058;DHT22;13057;50.978;11.034;2024-03-22T11:31:56;16.80;99.90
25058;DHT22;13057;50.978;11.034;2024-03-22T11:34:22;16.80;99.90
25058;DHT22;13057;50.978;11.034;2024-03-22T11:36:53;16.80;99.90
25058;DHT22;13057;50.978;11.034;2024-03-22T11:39:19;16.90;99.90
25058;DHT22;13057;50.978;11.034;2024-03-22T11:41:46;17.00;99.90
25058;DHT22;13057;50.978;11.034;2024-03-22T11:44:15;17.00;99.80
25058;DHT22;13057;50.978;11.034;2024-03-22T11:46:44;17.20;99.90
25058;DHT22;13057;50.978;11.034;2024-03-22T11:49:19;17.20;99.30
25058;DHT22;13057;50.978;11.034;2024-03-22T11:51:45;17.20;99.40
25058;DHT22;13057;50.978;11.034;2024-03-22T11:54:11;17.20;99.80
25058;DHT22;13057;50.978;11.034;2024-03-22T11:56:37;17.20;99.50
25058;DHT22;13057;50.978;11.034;2024-03-22T11:59:06;17.10;99.90
25058;DHT22;13057;50.978;11.034;2024-03-22T12:01:33;17.10;99.60
25058;DHT22;13057;50.978;11.034;2024-03-22T12:03:59;17.10;99.80
25058;DHT22;13057;50.978;11.034;2024-03-22T12:06:25;17.20;99.50
25058;DHT22;13057;50.978;11.034;2024-03-22T12:08:51;17.20;99.60
25058;DHT22;13057;50.978;11.034;2024-03-22T12:11:17;17.30;99.90
25058;DHT22;13057;50.978;11.034;2024-03-22T12:13:43;17.30;99.30
25058;DHT22;13057;50.978;11.034;2024-03-22T12:16:09;17.20;98.90
25058;DHT22;13057;50.978;11.034;2024-03-22T12:18:35;17.20;99.40
25058;DHT22;13057;50.978;11.034;2024-03-22T12:21:01;17.30;99.90
25058;DHT22;13057;50.978;11.034;2024-03-22T12:23:27;17.30;99.10
25058;DHT22;13057;50.978;11.034;2024-03-22T12:25:56;17.30;99.20
25058;DHT22;13057;50.978;11.034;2024-03-22T12:28:22;17.20;98.80
25058;DHT22;13057;50.978;11.034;2024-03-22T12:30:49;17.20;99.10
25058;DHT22;13057;50.978;11.034;2024-03-22T12:33:15;17.20;99.30
25058;DHT22;13057;50.978;11.034;2024-03-22T12:35:44;17.30;99.30
25058;DHT22;13057;50.978;11.034;2024-03-22T12:38:10;17.40;98.70
25058;DHT22;13057;50.978;11.034;2024-03-22T12:40:39;17.40;99.30
25058;DHT22;13057;50.978;11.034;2024-03-22T12:43:06;17.30;98.70
25058;DHT22;13057;50.978;11.034;2024-03-22T12:45:32;17.30;99.90
25058;DHT22;13057;50.978;11.034;2024-03-22T12:47:58;17.40;98.90
25058;DHT22;13057;50.978;11.034;2024-03-22T12:50:26;17.40;99.20
25058;DHT22;13057;50.978;11.034;2024-03-22T12:52:52;17.40;98.50
25058;DHT22;13057;50.978;11.034;2024-03-22T12:55:17;17.30;98.40
25058;DHT22;13057;50.978;11.034;2024-03-22T12:57:43;17.30;98.50
25058;DHT22;13057;50.978;11.034;2024-03-22T13:00:10;17.20;98.60
25058;DHT22;13057;50.978;11.034;2024-03-22T13:02:45;17.20;98.70
25058;DHT22;13057;50.978;11.034;2024-03-22T13:05:10;17.10;98.90
25058;DHT22;13057;50.978;11.034;2024-03-22T13:07:36;17.20;98.90
25058;DHT22;13057;50.978;11.034;2024-03-22T13:10:03;17.10;98.90
25058;DHT22;13057;50.978;11.034;2024-03-22T13:12:29;17.10;98.70
25058;DHT22;13057;50.978;11.034;2024-03-22T13:15:00;17.10;98.80
25058;DHT22;13057;50.978;11.034;2024-03-22T13:17:26;17.10;98.90
25058;DHT22;13057;50.978;11.034;2024-03-22T13:19:52;17.00;98.90
25058;DHT22;13057;50.978;11.034;2024-03-22T13:22:18;17.00;98.80
25058;DHT22;13057;50.978;11.034;2024-03-22T13:24:45;17.00;98.80
25058;DHT22;13057;50.978;11.034;2024-03-22T13:27:12;17.00;98.90
25058;DHT22;13057;50.978;11.034;2024-03-22T13:29:40;16.90;98.80
25058;DHT22;13057;50.978;11.034;2024-03-22T13:32:07;16.90;99.00
25058;DHT22;13057;50.978;11.034;2024-03-22T13:34:36;16.90;99.00
25058;DHT22;13057;50.978;11.034;2024-03-22T13:37:02;17.00;98.90
25058;DHT22;13057;50.978;11.034;2024-03-22T13:39:28;17.00;98.90
25058;DHT22;13057;50.978;11.034;2024-03-22T13:41:57;17.00;99.00
25058;DHT22;13057;50.978;11.034;2024-03-22T13:44:23;17.00;98.80
25058;DHT22;13057;50.978;11.034;2024-03-22T13:46:50;17.10;99.00
25058;DHT22;13057;50.978;11.034;2024-03-22T13:49:18;17.10;98.70
25058;DHT22;13057;50.978;11.034;2024-03-22T13:51:47;17.10;98.60
25058;DHT22;13057;50.978;11.034;2024-03-22T13:54:13;17.00;98.60
25058;DHT22;13057;50.978;11.034;2024-03-22T13:56:39;17.10;98.80
25058;DHT22;13057;50.978;11.034;2024-03-22T13:59:06;17.10;98.80
25058;DHT22;13057;50.978;11.034;2024-03-22T14:01:34;17.00;98.70
25058;DHT22;13057;50.978;11.034;2024-03-22T14:04:09;17.00;98.70
25058;DHT22;13057;50.978;11.034;2024-03-22T14:06:41;17.00;98.60
25058;DHT22;13057;50.978;11.034;2024-03-22T14:09:08;17.00;98.70
25058;DHT22;13057;50.978;11.034;2024-03-22T14:11:37;17.00;98.80
25058;DHT22;13057;50.978;11.034;2024-03-22T14:14:03;17.00;98.80
25058;DHT22;13057;50.978;11.034;2024-03-22T14:16:29;17.00;98.80
25058;DHT22;13057;50.978;11.034;2024-03-22T14:18:55;17.00;98.80
25058;DHT22;13057;50.978;11.034;2024-03-22T14:21:22;17.00;99.50
25058;DHT22;13057;50.978;11.034;2024-03-22T14:23:49;17.00;99.40
25058;DHT22;13057;50.978;11.034;2024-03-22T14:26:17;17.00;99.00
25058;DHT22;13057;50.978;11.034;2024-03-22T14:28:43;17.00;99.40
25058;DHT22;13057;50.978;11.034;2024-03-22T14:31:10;17.00;99.30
25058;DHT22;13057;50.978;11.034;2024-03-22T14:33:37;17.00;99.40
25058;DHT22;13057;50.978;11.034;2024-03-22T14:36:03;17.00;99.30
25058;DHT22;13057;50.978;11.034;2024-03-22T14:38:31;17.00;98.90
25058;DHT22;13057;50.978;11.034;2024-03-22T14:40:57;17.00;98.80
25058;DHT22;13057;50.978;11.034;2024-03-22T14:43:24;17.00;98.80
25058;DHT22;13057;50.978;11.034;2024-03-22T14:45:51;17.00;98.70
25058;DHT22;13057;50.978;11.034;2024-03-22T14:48:21;17.00;98.80
25058;DHT22;13057;50.978;11.034;2024-03-22T14:50:48;17.00;98.70
25058;DHT22;13057;50.978;11.034;2024-03-22T14:53:14;17.00;98.70
25058;DHT22;13057;50.978;11.034;2024-03-22T14:55:56;17.00;98.90
25058;DHT22;13057;50.978;11.034;2024-03-22T14:58:28;16.90;98.90
25058;DHT22;13057;50.978;11.034;2024-03-22T15:00:55;16.90;98.80
25058;DHT22;13057;50.978;11.034;2024-03-22T15:03:21;16.90;98.80
25058;DHT22;13057;50.978;11.034;2024-03-22T15:05:50;16.90;98.90
25058;DHT22;13057;50.978;11.034;2024-03-22T15:08:16;16.90;99.10
25058;DHT22;13057;50.978;11.034;2024-03-22T15:10:42;16.90;99.10
25058;DHT22;13057;50.978;11.034;2024-03-22T15:13:07;16.90;99.20
25058;DHT22;13057;50.978;11.034;2024-03-22T15:15:34;16.90;99.00
25058;DHT22;13057;50.978;11.034;2024-03-22T15:18:00;16.90;99.20
25058;DHT22;13057;50.978;11.034;2024-03-22T15:20:26;16.90;98.90
25058;DHT22;13057;50.978;11.034;2024-03-22T15:22:55;16.90;98.60